createdAt,value
2023-05-01T00:00:33.821Z,99150.66
2023-05-01T00:10:52.274Z,99152.89
2023-05-01T00:20:55.865Z,99145.23
2023-05-01T00:30:59.453Z,99142.42
2023-05-01T00:41:03.158Z,99134.66
2023-05-01T00:51:08.647Z,99129.73
2023-05-01T01:01:13.406Z,99124.10
2023-05-01T01:11:17.421Z,99120.66
2023-05-01T01:21:21.425Z,99127.73
2023-05-01T01:31:30.044Z,99124.49
2023-05-01T01:41:33.151Z,99130.17
2023-05-01T01:51:41.257Z,99120.08
2023-05-01T02:01:46.382Z,99109.62
2023-05-01T02:11:51.272Z,99109.29
2023-05-01T02:22:00.522Z,99105.85
2023-05-01T02:32:04.722Z,99104.13
2023-05-01T02:42:09.006Z,99100.20
2023-05-01T02:52:12.765Z,99098.29
2023-05-01T03:02:19.923Z,99088.41
2023-05-01T03:12:27.318Z,99092.42
2023-05-01T03:22:31.124Z,99089.77
2023-05-01T03:32:35.304Z,99082.97
2023-05-01T03:42:39.085Z,99073.39
2023-05-01T03:52:42.625Z,99072.31
2023-05-01T04:02:46.906Z,99073.08
2023-05-01T04:12:51.139Z,99060.30
2023-05-01T04:22:54.515Z,99048.91
2023-05-01T04:33:02.443Z,99040.36
2023-05-01T04:43:06.608Z,99043.60
2023-05-01T04:53:10.550Z,99046.20
2023-05-01T05:03:15.821Z,99044.16
2023-05-01T05:13:19.549Z,99047.14
2023-05-01T05:23:23.497Z,99047.14
2023-05-01T05:33:28.582Z,99036.48
2023-05-01T05:43:32.354Z,99035.93
2023-05-01T05:53:36.012Z,99035.04
2023-05-01T06:03:40.101Z,99034.98
2023-05-01T06:13:44.456Z,99029.98
2023-05-01T06:23:48.523Z,99033.41
2023-05-01T06:33:52.159Z,99035.23
2023-05-01T06:43:58.904Z,99033.44
2023-05-01T06:54:02.458Z,99026.52
2023-05-01T07:04:05.077Z,99014.23
2023-05-01T07:14:08.626Z,99003.49
2023-05-01T07:24:11.856Z,98997.90
2023-05-01T07:34:15.366Z,98991.60
2023-05-01T07:44:18.922Z,98996.26
2023-05-01T07:54:22.622Z,98996.69
2023-05-01T08:04:27.353Z,98998.02
2023-05-01T08:14:31.381Z,98998.09
2023-05-01T08:24:35.238Z,98998.84
2023-05-01T08:34:39.140Z,98994.20
2023-05-01T08:44:43.035Z,98986.23
2023-05-01T08:54:48.189Z,98984.39
2023-05-01T09:04:52.915Z,98981.48
2023-05-01T09:14:57.523Z,98967.96
2023-05-01T09:25:01.672Z,98963.41
2023-05-01T09:35:11.977Z,98951.63
2023-05-01T09:45:17.261Z,98943.92
2023-05-01T09:55:24.826Z,98940.30
2023-05-01T10:05:42.476Z,98930.80
2023-05-01T10:15:50.396Z,98923.14
2023-05-01T10:25:56.042Z,98913.52
2023-05-01T10:36:00.741Z,98906.80
2023-05-01T10:46:29.429Z,98902.90
2023-05-01T10:56:45.740Z,98894.70
2023-05-01T11:07:20.332Z,98880.21
2023-05-01T11:17:49.015Z,98871.50
2023-05-01T11:27:54.668Z,98850.70
2023-05-01T11:37:58.274Z,98839.90
2023-05-01T11:48:04.119Z,98829.61
2023-05-01T11:58:08.847Z,98817.71
2023-05-01T12:08:11.946Z,98807.54
2023-05-01T12:18:19.983Z,98793.66
2023-05-01T12:28:28.038Z,98782.44
2023-05-01T12:38:31.849Z,98766.37
2023-05-01T12:48:40.842Z,98760.83
2023-05-01T12:58:44.415Z,98745.02
2023-05-01T13:08:48.687Z,98735.09
2023-05-01T13:18:53.146Z,98728.71
2023-05-01T13:28:58.094Z,98707.20
2023-05-01T13:39:01.958Z,98699.44
2023-05-01T13:49:07.514Z,98694.21
2023-05-01T13:59:11.347Z,98678.83
2023-05-01T14:09:16.384Z,98668.76
2023-05-01T14:19:20.077Z,98660.05
2023-05-01T14:29:27.265Z,98648.66
2023-05-01T14:39:33.260Z,98641.46
2023-05-01T14:49:36.480Z,98637.88
2023-05-01T14:59:40.561Z,98626.26
2023-05-01T15:09:48.013Z,98617.30
2023-05-01T15:19:51.779Z,98613.70
2023-05-01T15:29:55.898Z,98607.90
2023-05-01T15:39:59.803Z,98597.45
2023-05-01T15:50:03.268Z,98592.30
2023-05-01T16:00:10.038Z,98585.39
2023-05-01T16:10:13.712Z,98569.26
2023-05-01T16:20:17.714Z,98563.83
2023-05-01T16:30:27.258Z,98562.02
2023-05-01T16:40:31.290Z,98570.23
2023-05-01T16:50:34.171Z,98567.02
2023-05-01T17:00:38.644Z,98559.91
2023-05-01T17:10:46.469Z,98567.95
2023-05-01T17:20:50.420Z,98561.81
2023-05-01T17:30:54.064Z,98568.64
2023-05-01T17:40:58.371Z,98555.11
2023-05-01T17:51:02.532Z,98555.42
2023-05-01T18:01:09.753Z,98553.34
2023-05-01T18:11:13.767Z,98555.59
2023-05-01T18:21:17.700Z,98556.77
2023-05-01T18:31:20.494Z,98560.56
2023-05-01T18:41:28.066Z,98558.34
2023-05-01T18:51:31.795Z,98561.16
2023-05-01T19:01:35.469Z,98563.15
2023-05-01T19:11:39.072Z,98564.30
2023-05-01T19:21:46.231Z,98575.74
2023-05-01T19:31:50.701Z,98566.52
2023-05-01T19:41:54.482Z,98560.53
2023-05-01T19:51:58.151Z,98558.21
2023-05-01T20:02:02.167Z,98558.35
2023-05-01T20:12:05.608Z,98558.02
2023-05-01T20:22:09.562Z,98558.41
2023-05-01T20:32:14.082Z,98549.66
2023-05-01T20:42:17.686Z,98547.79
2023-05-01T20:52:21.304Z,98553.38
2023-05-01T21:02:25.142Z,98557.41
2023-05-01T21:12:29.178Z,98562.23
2023-05-01T21:22:32.766Z,98563.61
2023-05-01T21:32:39.435Z,98558.52
2023-05-01T21:42:43.254Z,98558.09
2023-05-01T21:52:49.014Z,98563.50
2023-05-01T22:02:52.807Z,98570.21
2023-05-01T22:12:56.816Z,98575.43
2023-05-01T22:23:03.383Z,98577.92
2023-05-01T22:33:07.055Z,98572.95
2023-05-01T22:43:14.038Z,98570.16
2023-05-01T22:53:17.739Z,98566.90
2023-05-01T23:03:21.951Z,98565.20
2023-05-01T23:13:26.852Z,98564.20
2023-05-01T23:23:34.005Z,98561.32
2023-05-01T23:33:41.019Z,98549.23
2023-05-01T23:43:47.566Z,98543.77
2023-05-01T23:53:50.440Z,98543.08
